createdAt,value
2019-06-07T00:00:52.076Z,96441.12
2019-06-07T00:03:29.729Z,96446.02
2019-06-07T00:05:53.092Z,96443.97
2019-06-07T00:08:28.385Z,96446.91
2019-06-07T00:10:54.110Z,96458.20
2019-06-07T00:13:26.742Z,96453.25
2019-06-07T00:15:56.410Z,96449.91
2019-06-07T00:18:26.360Z,96451.45
2019-06-07T00:20:56.731Z,96446.51
2019-06-07T00:23:26.415Z,96454.20
2019-06-07T00:25:57.817Z,96458.28
2019-06-07T00:28:27.449Z,96454.63
2019-06-07T00:30:57.116Z,96459.43
2019-06-07T00:33:28.498Z,96447.50
2019-06-07T00:36:00.537Z,96457.32
2019-06-07T00:38:30.174Z,96457.36
2019-06-07T00:40:59.854Z,96455.42
2019-06-07T00:43:31.013Z,96459.00
2019-06-07T00:46:02.102Z,96465.08
2019-06-07T00:48:32.819Z,96466.84
2019-06-07T00:51:02.916Z,96473.53
2019-06-07T00:53:32.849Z,96479.70
2019-06-07T00:56:02.715Z,96479.44
2019-06-07T00:58:32.585Z,96481.69
2019-06-07T01:01:02.187Z,96473.50
2019-06-07T01:03:31.817Z,96478.23
2019-06-07T01:06:01.422Z,96479.14
2019-06-07T01:08:31.052Z,96477.80
2019-06-07T01:11:00.732Z,96480.58
2019-06-07T01:13:30.288Z,96479.63
2019-06-07T01:15:59.914Z,96477.69
2019-06-07T01:18:42.885Z,96477.13
2019-06-07T01:21:02.513Z,96476.69
2019-06-07T01:24:05.436Z,96480.91
2019-06-07T01:26:03.503Z,96486.66
2019-06-07T01:28:33.125Z,96485.80
2019-06-07T01:31:02.726Z,96484.45
2019-06-07T01:33:50.395Z,96477.53
2019-06-07T01:36:03.775Z,96481.72
2019-06-07T01:38:33.379Z,96486.89
2019-06-07T01:41:03.044Z,96485.61
2019-06-07T01:43:32.674Z,96484.34
2019-06-07T01:46:02.361Z,96493.89
2019-06-07T01:48:49.112Z,96496.41
2019-06-07T01:51:06.080Z,96499.89
2019-06-07T01:53:35.708Z,96502.45
2019-06-07T01:56:05.612Z,96507.98
2019-06-07T01:58:35.232Z,96498.41
2019-06-07T02:01:04.916Z,96504.88
2019-06-07T02:03:34.546Z,96508.65
2019-06-07T02:06:04.380Z,96512.25
2019-06-07T02:08:34.543Z,96509.41
2019-06-07T02:11:05.898Z,96516.03
2019-06-07T02:13:35.615Z,96518.22
2019-06-07T02:16:07.048Z,96512.61
2019-06-07T02:18:36.777Z,96513.52
2019-06-07T02:24:02.149Z,96513.16
2019-06-07T02:26:32.634Z,96516.66
2019-06-07T02:29:02.457Z,96516.40
2019-06-07T02:31:38.622Z,96518.46
2019-06-07T02:34:03.413Z,96516.42
2019-06-07T02:36:40.829Z,96521.01
2019-06-07T02:39:06.650Z,96525.19
2019-06-07T02:41:40.028Z,96528.62
2019-06-07T02:44:08.299Z,96523.39
2019-06-07T02:46:46.838Z,96527.09
2019-06-07T02:49:09.530Z,96522.49
2019-06-07T02:51:41.687Z,96519.53
2019-06-07T02:54:13.354Z,96523.78
2019-06-07T02:56:56.155Z,96530.64
2019-06-07T02:59:14.395Z,96533.25
2019-06-07T03:01:44.773Z,96528.50
2019-06-07T03:04:17.190Z,96530.52
2019-06-07T03:06:50.205Z,96532.39
2019-06-07T03:09:20.140Z,96531.77
2019-06-07T03:11:53.943Z,96534.28
2019-06-07T03:14:26.317Z,96532.07
2019-06-07T03:17:02.381Z,96535.55
2019-06-07T03:19:37.767Z,96537.34
2019-06-07T03:22:07.931Z,96538.66
2019-06-07T03:24:41.129Z,96538.66
2019-06-07T03:27:32.683Z,96542.80
2019-06-07T03:29:41.435Z,96541.78
2019-06-07T03:32:11.276Z,96542.83
2019-06-07T03:34:43.552Z,96548.30
2019-06-07T03:37:13.427Z,96547.60
2019-06-07T03:39:45.832Z,96549.10
2019-06-07T03:42:17.099Z,96554.80
2019-06-07T03:44:46.697Z,96562.94
2019-06-07T03:47:16.329Z,96558.48
2019-06-07T03:49:45.941Z,96564.31
2019-06-07T03:52:15.610Z,96569.18
2019-06-07T03:54:45.213Z,96572.27
2019-06-07T03:57:14.886Z,96571.36
2019-06-07T03:59:46.149Z,96584.30
2019-06-07T04:02:15.892Z,96588.97
2019-06-07T04:04:45.499Z,96588.16
2019-06-07T04:07:15.075Z,96596.05
2019-06-07T04:09:44.702Z,96599.95
2019-06-07T04:12:14.300Z,96600.34
2019-06-07T04:14:45.577Z,96592.09
2019-06-07T04:17:15.165Z,96596.88
2019-06-07T04:19:44.788Z,96607.19
2019-06-07T04:22:14.460Z,96604.64
2019-06-07T04:24:44.083Z,96601.70
2019-06-07T04:27:13.774Z,96604.13
2019-06-07T04:30:05.349Z,96607.78
2019-06-07T04:32:19.204Z,96611.73
2019-06-07T04:34:48.943Z,96614.11
2019-06-07T04:37:19.343Z,96610.70
2019-06-07T04:39:53.848Z,96617.22
2019-06-07T04:42:27.017Z,96613.72
2019-06-07T04:45:00.098Z,96612.89
2019-06-07T04:47:33.804Z,96613.18
2019-06-07T04:50:05.093Z,96610.39
2019-06-07T04:52:36.915Z,96604.36
2019-06-07T04:55:07.605Z,96602.50
2019-06-07T04:57:39.501Z,96603.68
2019-06-07T05:00:46.189Z,96607.06
2019-06-07T05:02:43.082Z,96605.60
2019-06-07T05:05:11.882Z,96604.92
2019-06-07T05:07:46.135Z,96614.70
2019-06-07T05:10:14.724Z,96611.16
2019-06-07T05:12:44.535Z,96608.81
2019-06-07T05:15:14.283Z,96616.05
2019-06-07T05:17:45.211Z,96612.67
2019-06-07T05:20:16.541Z,96608.09
2019-06-07T05:22:46.268Z,96613.75
2019-06-07T05:25:16.841Z,96617.37
2019-06-07T05:27:47.109Z,96613.64
2019-06-07T05:33:01.908Z,96618.59
2019-06-07T05:35:33.125Z,96627.52
2019-06-07T05:38:03.042Z,96617.81
2019-06-07T05:40:43.850Z,96620.95
2019-06-07T05:43:26.959Z,96618.78
2019-06-07T05:45:56.704Z,96617.96
2019-06-07T05:48:26.852Z,96622.00
2019-06-07T05:50:58.191Z,96615.73
2019-06-07T05:53:27.999Z,96617.47
2019-06-07T05:55:58.794Z,96613.25
2019-06-07T05:58:30.376Z,96618.25
2019-06-07T06:01:40.819Z,96613.11
2019-06-07T06:03:31.325Z,96622.08
2019-06-07T06:06:03.620Z,96620.17
2019-06-07T06:08:37.511Z,96619.63
2019-06-07T06:11:04.701Z,96611.70
2019-06-07T06:13:34.450Z,96617.72
2019-06-07T06:16:04.284Z,96613.38
2019-06-07T06:18:38.020Z,96613.91
2019-06-07T06:21:19.166Z,96618.48
2019-06-07T06:23:43.379Z,96620.11
2019-06-07T06:26:13.555Z,96630.06
2019-06-07T06:28:45.254Z,96634.78
2019-06-07T06:31:14.784Z,96638.39
2019-06-07T06:33:45.207Z,96638.89
2019-06-07T06:36:15.772Z,96648.19
2019-06-07T06:38:47.141Z,96650.92
2019-06-07T06:41:17.135Z,96652.49
2019-06-07T06:43:50.329Z,96654.33
2019-06-07T06:46:38.220Z,96651.61
2019-06-07T06:48:55.316Z,96650.91
2019-06-07T06:51:23.995Z,96653.58
2019-06-07T06:53:53.625Z,96651.95
2019-06-07T06:56:24.374Z,96654.51
2019-06-07T07:01:25.504Z,96661.42
2019-06-07T07:04:11.382Z,96671.60
2019-06-07T07:06:27.247Z,96669.78
2019-06-07T07:08:58.598Z,96663.27
2019-06-07T07:11:28.353Z,96669.41
2019-06-07T07:14:00.873Z,96657.91
2019-06-07T07:16:29.718Z,96656.73
2019-06-07T07:18:59.317Z,96645.36
2019-06-07T07:21:29.041Z,96643.16
2019-06-07T07:24:20.550Z,96647.84
2019-06-07T07:26:30.423Z,96645.77
2019-06-07T07:29:00.185Z,96655.48
2019-06-07T07:31:29.954Z,96650.44
2019-06-07T07:34:28.256Z,96650.53
2019-06-07T07:36:39.291Z,96654.37
2019-06-07T07:39:07.205Z,96653.61
2019-06-07T07:41:36.789Z,96655.37
2019-06-07T07:44:07.922Z,96658.31
2019-06-07T07:46:37.960Z,96659.70
2019-06-07T07:49:09.178Z,96666.97
2019-06-07T07:51:38.839Z,96668.27
2019-06-07T07:54:11.230Z,96662.18
2019-06-07T07:56:39.931Z,96661.14
2019-06-07T07:59:09.679Z,96659.35
2019-06-07T08:01:39.439Z,96653.61
2019-06-07T08:04:09.087Z,96658.97
2019-06-07T08:06:38.721Z,96656.94
2019-06-07T08:09:10.787Z,96657.30
2019-06-07T08:11:40.412Z,96653.05
2019-06-07T08:14:10.060Z,96654.29
2019-06-07T08:16:39.710Z,96658.05
2019-06-07T08:19:09.346Z,96645.80
2019-06-07T08:21:38.979Z,96644.05
2019-06-07T08:24:08.730Z,96651.06
2019-06-07T08:26:38.357Z,96648.71
2019-06-07T08:29:08.044Z,96649.11
2019-06-07T08:31:37.674Z,96641.95
2019-06-07T08:34:07.379Z,96647.63
2019-06-07T08:36:42.396Z,96641.78
2019-06-07T08:39:09.160Z,96649.17
2019-06-07T08:41:53.390Z,96645.03
2019-06-07T08:44:23.450Z,96655.50
2019-06-07T08:46:41.585Z,96648.82
2019-06-07T08:49:11.213Z,96648.61
2019-06-07T08:51:40.833Z,96649.08
2019-06-07T08:54:22.157Z,96649.88
2019-06-07T08:56:43.571Z,96651.97
2019-06-07T08:59:13.549Z,96652.00
2019-06-07T09:01:43.261Z,96656.99
2019-06-07T09:04:12.862Z,96653.94
2019-06-07T09:09:13.974Z,96655.33
2019-06-07T09:11:43.704Z,96654.00
2019-06-07T09:14:13.343Z,96650.60
2019-06-07T09:16:43.015Z,96653.91
2019-06-07T09:19:12.677Z,96651.23
2019-06-07T09:21:42.243Z,96647.19
2019-06-07T09:24:12.297Z,96647.44
2019-06-07T09:26:42.028Z,96652.64
2019-06-07T09:29:12.489Z,96649.07
2019-06-07T09:31:52.422Z,96642.08
2019-06-07T09:34:15.131Z,96640.39
2019-06-07T09:36:45.094Z,96643.59
2019-06-07T09:39:14.850Z,96646.78
2019-06-07T09:41:49.647Z,96630.44
2019-06-07T09:44:24.621Z,96639.34
2019-06-07T09:47:08.405Z,96640.00
2019-06-07T09:49:32.277Z,96634.43
2019-06-07T09:51:51.818Z,96637.72
2019-06-07T09:56:52.972Z,96634.58
2019-06-07T09:59:22.611Z,96621.49
2019-06-07T10:01:54.006Z,96623.50
2019-06-07T10:04:31.226Z,96619.64
2019-06-07T10:06:55.059Z,96625.31
2019-06-07T10:11:56.544Z,96620.66
2019-06-07T10:14:27.557Z,96623.11
2019-06-07T10:16:58.694Z,96619.41
2019-06-07T10:19:28.412Z,96609.58
2019-06-07T10:21:59.143Z,96609.67
2019-06-07T10:24:28.779Z,96609.78
2019-06-07T10:26:59.598Z,96611.45
2019-06-07T10:29:29.350Z,96607.96
2019-06-07T10:32:00.060Z,96614.22
2019-06-07T10:34:33.919Z,96608.87
2019-06-07T10:37:08.763Z,96610.82
2019-06-07T10:39:48.172Z,96598.91
2019-06-07T10:42:07.789Z,96604.25
2019-06-07T10:44:38.283Z,96601.78
2019-06-07T10:47:08.246Z,96594.02
2019-06-07T10:49:38.091Z,96591.06
2019-06-07T10:52:08.577Z,96591.75
2019-06-07T10:54:39.456Z,96589.12
2019-06-07T10:57:12.142Z,96593.80
2019-06-07T10:59:40.599Z,96590.53
2019-06-07T11:02:11.923Z,96591.02
2019-06-07T11:04:41.766Z,96592.05
2019-06-07T11:07:12.066Z,96580.44
2019-06-07T11:09:41.835Z,96577.79
2019-06-07T11:12:12.528Z,96574.78
2019-06-07T11:14:42.399Z,96591.31
2019-06-07T11:17:13.411Z,96590.12
2019-06-07T11:19:43.273Z,96590.08
2019-06-07T11:22:14.177Z,96588.22
2019-06-07T11:24:44.610Z,96580.44
2019-06-07T11:27:16.429Z,96580.59
2019-06-07T11:29:45.950Z,96575.05
2019-06-07T11:32:15.636Z,96573.79
2019-06-07T11:34:45.482Z,96567.59
2019-06-07T11:37:16.102Z,96569.28
2019-06-07T11:39:45.970Z,96569.24
2019-06-07T11:42:15.803Z,96571.95
2019-06-07T11:44:56.317Z,96566.45
2019-06-07T11:47:16.748Z,96559.58
2019-06-07T11:49:46.508Z,96557.92
2019-06-07T11:52:17.694Z,96557.98
2019-06-07T11:54:48.230Z,96547.00
2019-06-07T11:57:17.955Z,96538.52
2019-06-07T11:59:47.631Z,96540.29
2019-06-07T12:02:17.676Z,96536.16
2019-06-07T12:04:47.468Z,96542.42
2019-06-07T12:07:19.802Z,96533.63
2019-06-07T12:09:56.321Z,96539.05
2019-06-07T12:12:20.659Z,96532.61
2019-06-07T12:14:50.503Z,96531.67
2019-06-07T12:17:20.236Z,96528.30
2019-06-07T12:19:49.852Z,96521.58
2019-06-07T12:22:20.037Z,96525.15
2019-06-07T12:24:49.837Z,96515.39
2019-06-07T12:27:20.785Z,96519.36
2019-06-07T12:29:50.475Z,96511.75
2019-06-07T12:32:21.466Z,96512.92
2019-06-07T12:34:51.283Z,96508.77
2019-06-07T12:37:25.463Z,96503.28
2019-06-07T12:39:52.225Z,96507.80
2019-06-07T12:42:22.660Z,96498.16
2019-06-07T12:44:52.464Z,96495.43
2019-06-07T12:47:23.269Z,96494.34
2019-06-07T12:49:52.993Z,96491.20
2019-06-07T12:52:23.466Z,96492.84
2019-06-07T12:54:54.339Z,96499.78
2019-06-07T12:57:24.268Z,96490.88
2019-06-07T12:59:54.024Z,96484.52
2019-06-07T13:02:25.405Z,96493.48
2019-06-07T13:04:55.359Z,96492.05
2019-06-07T13:07:24.980Z,96489.05
2019-06-07T13:09:54.648Z,96488.69
2019-06-07T13:12:24.404Z,96485.67
2019-06-07T13:14:54.166Z,96487.95
2019-06-07T13:17:24.162Z,96484.36
2019-06-07T13:19:53.899Z,96487.11
2019-06-07T13:22:24.417Z,96472.50
2019-06-07T13:24:54.135Z,96464.06
2019-06-07T13:27:25.412Z,96459.58
2019-06-07T13:29:55.006Z,96460.00
2019-06-07T13:32:24.759Z,96469.00
2019-06-07T13:34:54.495Z,96461.35
2019-06-07T13:37:25.382Z,96463.48
2019-06-07T13:39:55.255Z,96469.55
2019-06-07T13:42:24.884Z,96464.14
2019-06-07T13:44:54.692Z,96460.30
2019-06-07T13:47:25.335Z,96455.66
2019-06-07T13:49:55.516Z,96454.19
2019-06-07T13:52:25.468Z,96463.20
2019-06-07T13:54:55.232Z,96460.68
2019-06-07T13:57:26.063Z,96465.37
2019-06-07T13:59:55.735Z,96459.03
2019-06-07T14:02:26.189Z,96459.55
2019-06-07T14:04:56.892Z,96457.53
2019-06-07T14:07:28.608Z,96451.91
2019-06-07T14:09:58.418Z,96451.20
2019-06-07T14:12:28.077Z,96450.53
2019-06-07T14:14:57.773Z,96437.49
2019-06-07T14:17:28.228Z,96437.09
2019-06-07T14:19:59.767Z,96439.59
2019-06-07T14:22:31.084Z,96430.89
2019-06-07T14:25:00.934Z,96439.69
2019-06-07T14:27:31.897Z,96437.40
2019-06-07T14:30:01.802Z,96443.72
2019-06-07T14:32:32.742Z,96441.82
2019-06-07T14:35:02.796Z,96446.84
2019-06-07T14:37:33.071Z,96431.13
2019-06-07T14:40:03.178Z,96437.80
2019-06-07T14:42:33.447Z,96440.06
2019-06-07T14:45:06.104Z,96429.38
2019-06-07T14:47:35.168Z,96442.72
2019-06-07T14:50:08.277Z,96436.47
2019-06-07T14:52:38.104Z,96436.92
2019-06-07T14:55:09.444Z,96441.53
2019-06-07T14:57:39.473Z,96432.29
2019-06-07T15:00:14.743Z,96439.59
2019-06-07T15:02:44.482Z,96435.48
2019-06-07T15:05:15.786Z,96428.20
2019-06-07T15:07:45.543Z,96424.31
2019-06-07T15:10:15.354Z,96426.24
2019-06-07T15:12:45.286Z,96422.80
2019-06-07T15:15:15.216Z,96418.47
2019-06-07T15:17:44.948Z,96415.48
2019-06-07T15:20:15.310Z,96420.06
2019-06-07T15:22:45.104Z,96413.25
2019-06-07T15:25:15.051Z,96410.95
2019-06-07T15:27:44.706Z,96419.13
2019-06-07T15:30:15.839Z,96414.72
2019-06-07T15:32:45.576Z,96404.07
2019-06-07T15:35:17.110Z,96405.16
2019-06-07T15:37:46.801Z,96405.81
2019-06-07T15:40:16.906Z,96407.62
2019-06-07T15:42:52.826Z,96405.96
2019-06-07T15:45:19.002Z,96410.70
2019-06-07T15:47:48.703Z,96414.59
2019-06-07T15:50:18.611Z,96409.29
2019-06-07T15:52:48.342Z,96405.22
2019-06-07T15:55:20.072Z,96407.70
2019-06-07T15:57:49.829Z,96400.41
2019-06-07T16:00:20.799Z,96406.58
2019-06-07T16:02:52.436Z,96408.47
2019-06-07T16:05:22.814Z,96404.28
2019-06-07T16:07:52.676Z,96404.14
2019-06-07T16:10:22.582Z,96395.91
2019-06-07T16:13:00.050Z,96401.36
2019-06-07T16:15:23.975Z,96406.31
2019-06-07T16:17:53.669Z,96405.30
2019-06-07T16:20:23.585Z,96408.35
2019-06-07T16:22:53.440Z,96406.58
2019-06-07T16:25:23.223Z,96405.94
2019-06-07T16:27:52.985Z,96410.61
2019-06-07T16:30:23.119Z,96397.31
2019-06-07T16:32:52.853Z,96399.99
2019-06-07T16:35:22.688Z,96406.31
2019-06-07T16:37:52.748Z,96419.73
2019-06-07T16:40:23.503Z,96415.14
2019-06-07T16:42:53.406Z,96409.14
2019-06-07T16:45:23.543Z,96422.22
2019-06-07T16:47:53.339Z,96414.46
2019-06-07T16:50:23.172Z,96415.50
2019-06-07T16:52:52.999Z,96417.19
2019-06-07T16:55:23.071Z,96415.96
2019-06-07T16:57:52.848Z,96420.23
2019-06-07T17:00:23.390Z,96414.09
2019-06-07T17:02:53.049Z,96404.99
2019-06-07T17:05:23.004Z,96422.27
2019-06-07T17:07:52.686Z,96415.53
2019-06-07T17:10:22.603Z,96412.25
2019-06-07T17:12:52.256Z,96418.86
2019-06-07T17:15:22.160Z,96412.25
2019-06-07T17:17:51.935Z,96412.22
2019-06-07T17:20:22.035Z,96415.20
2019-06-07T17:22:51.736Z,96423.91
2019-06-07T17:25:21.863Z,96422.78
2019-06-07T17:27:51.613Z,96424.20
2019-06-07T17:30:22.853Z,96412.95
2019-06-07T17:32:59.003Z,96416.73
2019-06-07T17:35:24.194Z,96409.28
2019-06-07T17:37:54.023Z,96410.12
2019-06-07T17:40:23.923Z,96405.03
2019-06-07T17:42:53.753Z,96403.64
2019-06-07T17:45:24.460Z,96403.95
2019-06-07T17:47:54.146Z,96402.20
2019-06-07T17:50:23.951Z,96408.80
2019-06-07T17:52:53.776Z,96410.03
2019-06-07T17:55:23.616Z,96407.97
2019-06-07T17:57:53.455Z,96409.45
2019-06-07T18:00:29.077Z,96406.06
2019-06-07T18:02:56.347Z,96397.38
2019-06-07T18:05:26.106Z,96397.20
2019-06-07T18:07:58.212Z,96394.08
2019-06-07T18:10:40.860Z,96387.11
2019-06-07T18:13:10.728Z,96398.39
2019-06-07T18:15:51.499Z,96405.12
2019-06-07T18:18:20.556Z,96413.37
2019-06-07T18:20:53.430Z,96406.66
2019-06-07T18:23:22.708Z,96415.87
2019-06-07T18:25:52.655Z,96414.14
2019-06-07T18:28:22.524Z,96413.39
2019-06-07T18:30:52.826Z,96428.39
2019-06-07T18:33:22.664Z,96426.77
2019-06-07T18:35:53.323Z,96430.59
2019-06-07T18:38:23.083Z,96425.95
2019-06-07T18:40:53.267Z,96434.51
2019-06-07T18:43:23.036Z,96434.44
2019-06-07T18:45:57.604Z,96443.09
2019-06-07T18:48:27.333Z,96445.89
2019-06-07T18:50:59.051Z,96435.56
2019-06-07T18:53:29.017Z,96443.60
2019-06-07T18:55:58.774Z,96447.95
2019-06-07T18:58:28.442Z,96461.91
2019-06-07T19:00:58.141Z,96466.61
2019-06-07T19:03:27.936Z,96465.60
2019-06-07T19:05:58.334Z,96465.50
2019-06-07T19:08:28.183Z,96476.28
2019-06-07T19:11:00.858Z,96480.41
2019-06-07T19:13:30.665Z,96480.95
2019-06-07T19:16:00.295Z,96485.22
2019-06-07T19:18:30.035Z,96486.39
2019-06-07T19:21:00.638Z,96494.89
2019-06-07T19:23:31.117Z,96490.97
2019-06-07T19:26:00.819Z,96494.43
2019-06-07T19:28:31.947Z,96495.05
2019-06-07T19:31:01.690Z,96500.19
2019-06-07T19:33:31.456Z,96498.62
2019-06-07T19:36:01.771Z,96505.20
2019-06-07T19:38:31.703Z,96510.70
2019-06-07T19:41:16.498Z,96517.17
2019-06-07T19:43:34.932Z,96516.52
2019-06-07T19:46:05.476Z,96526.98
2019-06-07T19:48:35.111Z,96526.89
2019-06-07T19:51:04.861Z,96521.52
2019-06-07T19:53:34.622Z,96528.66
2019-06-07T19:56:05.904Z,96526.84
2019-06-07T19:58:35.612Z,96535.75
2019-06-07T20:01:05.349Z,96535.27
2019-06-07T20:03:35.181Z,96528.84
2019-06-07T20:06:04.876Z,96530.94
2019-06-07T20:08:34.551Z,96537.86
2019-06-07T20:11:04.845Z,96540.37
2019-06-07T20:13:34.641Z,96542.43
2019-06-07T20:16:05.116Z,96540.41
2019-06-07T20:18:34.785Z,96539.91
2019-06-07T20:21:04.970Z,96543.88
2019-06-07T20:23:34.750Z,96541.79
2019-06-07T20:26:04.835Z,96553.31
2019-06-07T20:28:34.604Z,96557.69
2019-06-07T20:31:05.930Z,96549.77
2019-06-07T20:33:35.971Z,96561.25
2019-06-07T20:36:05.735Z,96561.09
2019-06-07T20:38:35.542Z,96561.38
2019-06-07T20:41:05.455Z,96563.19
2019-06-07T20:43:35.271Z,96578.34
2019-06-07T20:46:05.476Z,96582.91
2019-06-07T20:48:36.348Z,96581.88
2019-06-07T20:51:06.533Z,96579.52
2019-06-07T20:53:36.360Z,96579.92
2019-06-07T20:56:06.839Z,96579.09
2019-06-07T20:58:36.781Z,96579.20
2019-06-07T21:01:06.946Z,96575.03
2019-06-07T21:03:36.727Z,96588.59
2019-06-07T21:06:07.516Z,96576.93
2019-06-07T21:08:37.272Z,96581.08
2019-06-07T21:11:07.780Z,96587.92
2019-06-07T21:13:37.600Z,96588.95
2019-06-07T21:16:08.248Z,96589.23
2019-06-07T21:18:38.060Z,96588.03
2019-06-07T21:21:08.555Z,96583.58
2019-06-07T21:23:38.374Z,96582.31
2019-06-07T21:26:09.056Z,96588.14
2019-06-07T21:28:39.861Z,96593.98
2019-06-07T21:31:10.459Z,96592.82
2019-06-07T21:33:40.202Z,96594.89
2019-06-07T21:36:09.960Z,96592.84
2019-06-07T21:38:39.704Z,96591.88
2019-06-07T21:41:10.612Z,96599.99
2019-06-07T21:43:40.489Z,96591.44
2019-06-07T21:46:17.242Z,96596.20
2019-06-07T21:48:41.644Z,96590.13
2019-06-07T21:51:12.629Z,96591.16
2019-06-07T21:53:42.452Z,96590.55
2019-06-07T21:56:13.439Z,96596.27
2019-06-07T21:58:43.239Z,96597.57
2019-06-07T22:01:17.350Z,96593.02
2019-06-07T22:03:47.127Z,96589.58
2019-06-07T22:06:17.094Z,96592.33
2019-06-07T22:08:47.000Z,96594.29
2019-06-07T22:11:16.896Z,96596.48
2019-06-07T22:13:46.493Z,96597.14
2019-06-07T22:16:26.811Z,96597.52
2019-06-07T22:18:47.572Z,96585.07
2019-06-07T22:21:17.374Z,96593.97
2019-06-07T22:23:47.286Z,96589.65
2019-06-07T22:26:17.056Z,96589.75
2019-06-07T22:28:46.823Z,96587.30
2019-06-07T22:31:16.702Z,96586.27
2019-06-07T22:33:46.468Z,96588.22
2019-06-07T22:36:16.225Z,96590.66
2019-06-07T22:38:46.012Z,96592.36
2019-06-07T22:41:16.027Z,96594.89
2019-06-07T22:43:45.763Z,96593.42
2019-06-07T22:46:15.535Z,96598.92
2019-06-07T22:48:45.226Z,96592.06
2019-06-07T22:51:16.425Z,96590.88
2019-06-07T22:53:46.397Z,96588.47
2019-06-07T22:56:18.250Z,96585.77
2019-06-07T22:58:48.073Z,96587.79
2019-06-07T23:01:20.062Z,96587.80
2019-06-07T23:03:49.414Z,96588.31
2019-06-07T23:06:19.121Z,96596.11
2019-06-07T23:08:48.895Z,96588.14
2019-06-07T23:11:19.515Z,96591.91
2019-06-07T23:13:49.253Z,96591.66
2019-06-07T23:16:19.914Z,96582.59
2019-06-07T23:18:52.047Z,96579.62
2019-06-07T23:21:21.064Z,96583.62
2019-06-07T23:23:52.195Z,96582.81
2019-06-07T23:26:21.904Z,96589.08
2019-06-07T23:28:53.204Z,96585.08
2019-06-07T23:31:23.068Z,96593.23
2019-06-07T23:33:52.965Z,96602.20
2019-06-07T23:36:22.939Z,96595.67
2019-06-07T23:38:52.804Z,96593.56
2019-06-07T23:41:24.555Z,96592.30
2019-06-07T23:43:57.251Z,96594.17
2019-06-07T23:46:28.476Z,96593.64
2019-06-07T23:49:01.151Z,96596.34
2019-06-07T23:51:30.754Z,96596.92
2019-06-07T23:54:00.554Z,96601.16
2019-06-07T23:56:30.183Z,96592.78
2019-06-07T23:59:01.366Z,96607.09
